createdAt,value
2023-05-03T00:01:11.104Z,7.02
2023-05-03T00:03:40.743Z,7.03
2023-05-03T00:06:13.266Z,7.07
2023-05-03T00:08:43.244Z,7.09
2023-05-03T00:11:10.608Z,7.11
2023-05-03T00:13:38.291Z,7.13
2023-05-03T00:16:06.908Z,7.14
2023-05-03T00:18:34.196Z,7.15
2023-05-03T00:21:01.515Z,7.15
2023-05-03T00:23:28.913Z,7.16
2023-05-03T00:25:58.594Z,7.17
2023-05-03T00:28:26.964Z,7.18
2023-05-03T00:30:54.299Z,7.16
2023-05-03T00:33:24.790Z,7.15
2023-05-03T00:35:52.410Z,7.14
2023-05-03T00:38:19.711Z,7.14
2023-05-03T00:40:54.501Z,7.13
2023-05-03T00:43:21.981Z,7.11
2023-05-03T00:45:52.542Z,7.12
2023-05-03T00:48:21.163Z,7.10
2023-05-03T00:50:51.685Z,7.10
2023-05-03T00:53:19.059Z,7.09
2023-05-03T00:55:46.654Z,7.10
2023-05-03T00:58:14.566Z,7.11
2023-05-03T01:00:43.038Z,7.13
2023-05-03T01:03:10.563Z,7.14
2023-05-03T01:05:54.665Z,7.14
2023-05-03T01:08:35.877Z,7.14
2023-05-03T01:11:18.177Z,7.14
2023-05-03T01:14:08.811Z,7.13
2023-05-03T01:16:49.769Z,7.14
2023-05-03T01:19:30.766Z,7.14
2023-05-03T01:22:32.306Z,7.14
2023-05-03T01:25:19.811Z,7.11
2023-05-03T01:27:47.179Z,7.09
2023-05-03T01:30:14.729Z,7.09
2023-05-03T01:33:10.216Z,7.08
2023-05-03T01:35:57.044Z,7.08
2023-05-03T01:38:24.496Z,7.08
2023-05-03T01:40:54.891Z,7.07
2023-05-03T01:43:23.491Z,7.05
2023-05-03T01:45:51.345Z,7.04
2023-05-03T01:48:20.173Z,7.04
2023-05-03T01:50:47.445Z,7.02
2023-05-03T01:53:14.828Z,7.02
2023-05-03T01:55:43.407Z,7.05
2023-05-03T01:58:13.842Z,7.07
2023-05-03T02:00:44.360Z,7.09
2023-05-03T02:03:13.131Z,7.11
2023-05-03T02:05:42.408Z,7.12
2023-05-03T02:08:09.621Z,7.14
2023-05-03T02:10:36.943Z,7.13
2023-05-03T02:13:04.498Z,7.14
2023-05-03T02:15:32.182Z,7.14
2023-05-03T02:18:02.679Z,7.15
2023-05-03T02:20:35.394Z,7.15
2023-05-03T02:23:02.818Z,7.16
2023-05-03T02:25:30.339Z,7.17
2023-05-03T02:27:57.690Z,7.16
2023-05-03T02:30:25.438Z,7.16
2023-05-03T02:32:53.014Z,7.16
2023-05-03T02:35:21.379Z,7.16
2023-05-03T02:37:48.721Z,7.13
2023-05-03T02:40:17.854Z,7.10
2023-05-03T02:42:47.122Z,7.10
2023-05-03T02:45:18.305Z,7.09
2023-05-03T02:47:45.573Z,7.08
2023-05-03T02:50:14.974Z,7.09
2023-05-03T02:52:42.867Z,7.11
2023-05-03T02:55:10.391Z,7.09
2023-05-03T02:57:42.356Z,7.10
2023-05-03T03:00:12.201Z,7.09
2023-05-03T03:02:42.960Z,7.10
2023-05-03T03:05:10.902Z,7.13
2023-05-03T03:07:41.965Z,7.14
2023-05-03T03:10:09.948Z,7.17
2023-05-03T03:12:37.711Z,7.17
2023-05-03T03:15:11.265Z,7.17
2023-05-03T03:17:39.805Z,7.18
2023-05-03T03:20:13.643Z,7.18
2023-05-03T03:22:45.645Z,7.16
2023-05-03T03:25:13.322Z,7.17
2023-05-03T03:27:41.034Z,7.17
2023-05-03T03:30:09.470Z,7.17
2023-05-03T03:32:45.505Z,7.16
2023-05-03T03:35:18.720Z,7.15
2023-05-03T03:37:45.996Z,7.16
2023-05-03T03:40:13.623Z,7.15
2023-05-03T03:42:45.031Z,7.14
2023-05-03T03:45:12.366Z,7.16
2023-05-03T03:47:43.305Z,7.16
2023-05-03T03:50:11.296Z,7.17
2023-05-03T03:52:42.389Z,7.17
2023-05-03T03:55:11.776Z,7.18
2023-05-03T03:57:39.799Z,7.19
2023-05-03T04:00:10.426Z,7.19
2023-05-03T04:02:42.876Z,7.19
2023-05-03T04:05:16.179Z,7.21
2023-05-03T04:07:45.461Z,7.21
2023-05-03T04:10:13.783Z,7.22
2023-05-03T04:12:45.130Z,7.22
2023-05-03T04:15:14.577Z,7.21
2023-05-03T04:17:44.351Z,7.22
2023-05-03T04:20:14.042Z,7.26
2023-05-03T04:22:45.570Z,7.26
2023-05-03T04:25:14.362Z,7.29
2023-05-03T04:27:45.224Z,7.30
2023-05-03T04:30:15.786Z,7.32
2023-05-03T04:32:47.712Z,7.33
2023-05-03T04:35:15.974Z,7.33
2023-05-03T04:37:47.449Z,7.34
2023-05-03T04:40:19.813Z,7.36
2023-05-03T04:42:52.940Z,7.38
2023-05-03T04:45:21.282Z,7.39
2023-05-03T04:47:52.007Z,7.39
2023-05-03T04:50:19.704Z,7.40
2023-05-03T04:52:50.862Z,7.40
2023-05-03T04:55:20.222Z,7.40
2023-05-03T04:57:47.880Z,7.40
2023-05-03T05:00:16.469Z,7.40
2023-05-03T05:02:49.019Z,7.40
2023-05-03T05:05:18.256Z,7.42
2023-05-03T05:07:51.533Z,7.45
2023-05-03T05:10:20.829Z,7.46
2023-05-03T05:12:53.582Z,7.48
2023-05-03T05:15:21.284Z,7.49
2023-05-03T05:17:49.145Z,7.51
2023-05-03T05:20:18.922Z,7.52
2023-05-03T05:22:49.623Z,7.53
2023-05-03T05:25:17.040Z,7.55
2023-05-03T05:27:44.801Z,7.57
2023-05-03T05:30:12.547Z,7.58
2023-05-03T05:32:42.276Z,7.60
2023-05-03T05:35:12.485Z,7.63
2023-05-03T05:37:43.329Z,7.64
2023-05-03T05:40:11.436Z,7.63
2023-05-03T05:42:46.781Z,7.63
2023-05-03T05:45:14.356Z,7.65
2023-05-03T05:47:44.004Z,7.65
2023-05-03T05:50:17.398Z,7.65
2023-05-03T05:52:46.712Z,7.68
2023-05-03T05:55:16.071Z,7.70
2023-05-03T05:57:46.349Z,7.74
2023-05-03T06:00:15.659Z,7.76
2023-05-03T06:02:45.770Z,7.80
2023-05-03T06:05:17.387Z,7.83
2023-05-03T06:07:44.752Z,7.86
2023-05-03T06:10:12.420Z,7.88
2023-05-03T06:12:44.533Z,7.91
2023-05-03T06:15:16.891Z,7.95
2023-05-03T06:17:45.331Z,7.97
2023-05-03T06:20:13.146Z,8.01
2023-05-03T06:22:43.266Z,8.04
2023-05-03T06:25:16.160Z,8.09
2023-05-03T06:27:47.900Z,8.16
2023-05-03T06:30:15.489Z,8.20
2023-05-03T06:32:43.641Z,8.25
2023-05-03T06:35:12.632Z,8.29
2023-05-03T06:37:43.770Z,8.32
2023-05-03T06:40:11.637Z,8.33
2023-05-03T06:42:39.836Z,8.31
2023-05-03T06:45:14.386Z,8.29
2023-05-03T06:47:43.042Z,8.28
2023-05-03T06:50:11.268Z,8.30
2023-05-03T06:52:38.699Z,8.32
2023-05-03T06:55:07.363Z,8.36
2023-05-03T06:57:34.569Z,8.40
2023-05-03T07:00:02.217Z,8.42
2023-05-03T07:02:29.764Z,8.42
2023-05-03T07:04:57.128Z,8.40
2023-05-03T07:07:24.562Z,8.44
2023-05-03T07:09:52.045Z,8.48
2023-05-03T07:12:19.818Z,8.52
2023-05-03T07:14:47.792Z,8.58
2023-05-03T07:17:15.168Z,8.64
2023-05-03T07:19:42.620Z,8.70
2023-05-03T07:22:10.160Z,8.75
2023-05-03T07:24:37.391Z,8.80
2023-05-03T07:27:05.669Z,8.84
2023-05-03T07:29:33.126Z,8.86
2023-05-03T07:32:00.841Z,8.86
2023-05-03T07:34:28.102Z,8.90
2023-05-03T07:36:56.842Z,8.94
2023-05-03T07:39:24.124Z,8.95
2023-05-03T07:41:51.380Z,8.95
2023-05-03T07:44:18.661Z,8.98
2023-05-03T07:46:46.078Z,9.01
2023-05-03T07:49:13.529Z,9.06
2023-05-03T07:51:42.244Z,9.07
2023-05-03T07:54:09.492Z,9.09
2023-05-03T07:56:36.760Z,9.08
2023-05-03T07:59:09.808Z,9.09
2023-05-03T08:01:38.595Z,9.07
2023-05-03T08:04:08.038Z,9.07
2023-05-03T08:06:36.025Z,9.14
2023-05-03T08:09:04.855Z,9.13
2023-05-03T08:11:32.517Z,9.08
2023-05-03T08:13:59.876Z,9.12
2023-05-03T08:16:27.369Z,9.17
2023-05-03T08:18:54.812Z,9.22
2023-05-03T08:21:24.793Z,9.29
2023-05-03T08:23:52.243Z,9.36
2023-05-03T08:26:19.564Z,9.38
2023-05-03T08:28:46.954Z,9.43
2023-05-03T08:31:14.317Z,9.49
2023-05-03T08:33:43.901Z,9.53
2023-05-03T08:36:11.490Z,9.47
2023-05-03T08:38:42.155Z,9.52
2023-05-03T08:41:29.071Z,9.61
2023-05-03T08:44:00.502Z,9.62
2023-05-03T08:46:29.148Z,9.55
2023-05-03T08:49:00.350Z,9.55
2023-05-03T08:51:28.257Z,9.51
2023-05-03T08:53:55.663Z,9.45
2023-05-03T08:56:29.664Z,9.52
2023-05-03T08:58:57.344Z,9.60
2023-05-03T09:01:24.655Z,9.68
2023-05-03T09:03:52.897Z,9.76
2023-05-03T09:06:27.900Z,9.86
2023-05-03T09:08:55.857Z,9.91
2023-05-03T09:11:33.776Z,9.99
2023-05-03T09:14:14.340Z,10.03
2023-05-03T09:16:47.637Z,10.09
2023-05-03T09:19:16.346Z,10.20
2023-05-03T09:21:49.680Z,10.31
2023-05-03T09:24:21.915Z,10.33
2023-05-03T09:26:52.050Z,10.15
2023-05-03T09:29:32.665Z,10.07
2023-05-03T09:32:02.797Z,10.03
2023-05-03T09:34:30.455Z,10.09
2023-05-03T09:36:58.161Z,10.17
2023-05-03T09:39:25.575Z,10.24
2023-05-03T09:41:52.889Z,10.21
2023-05-03T09:44:20.282Z,10.28
2023-05-03T09:47:10.083Z,10.37
2023-05-03T09:49:38.506Z,10.48
2023-05-03T09:52:07.835Z,10.51
2023-05-03T09:54:35.679Z,10.52
2023-05-03T09:57:05.658Z,10.54
2023-05-03T09:59:37.048Z,10.56
2023-05-03T10:02:07.689Z,10.54
2023-05-03T10:04:51.686Z,10.61
2023-05-03T10:07:22.308Z,10.58
2023-05-03T10:09:49.770Z,10.62
2023-05-03T10:12:18.994Z,10.67
2023-05-03T10:14:48.408Z,10.75
2023-05-03T10:17:43.575Z,10.78
2023-05-03T10:20:39.987Z,10.76
2023-05-03T10:23:14.351Z,10.70
2023-05-03T10:26:13.411Z,10.72
2023-05-03T10:28:41.515Z,10.65
2023-05-03T10:32:00.186Z,10.67
2023-05-03T10:34:35.194Z,10.67
2023-05-03T10:37:08.175Z,10.60
2023-05-03T10:39:35.533Z,10.46
2023-05-03T10:42:09.013Z,10.30
2023-05-03T10:44:56.592Z,10.20
2023-05-03T10:47:24.852Z,10.19
2023-05-03T10:50:18.487Z,10.17
2023-05-03T10:52:48.381Z,10.17
2023-05-03T10:55:19.494Z,10.18
2023-05-03T10:57:48.358Z,10.19
2023-05-03T11:00:29.830Z,10.19
2023-05-03T11:03:19.215Z,10.17
2023-05-03T11:05:49.560Z,10.14
2023-05-03T11:08:22.201Z,10.18
2023-05-03T11:11:10.790Z,10.20
2023-05-03T11:13:38.914Z,10.22
2023-05-03T11:16:10.175Z,10.26
2023-05-03T11:18:37.582Z,10.29
2023-05-03T11:21:05.063Z,10.33
2023-05-03T11:23:32.387Z,10.37
2023-05-03T11:25:59.751Z,10.47
2023-05-03T11:28:27.126Z,10.55
2023-05-03T11:30:54.864Z,10.59
2023-05-03T11:33:22.214Z,10.65
2023-05-03T11:35:49.469Z,10.73
2023-05-03T11:38:17.001Z,10.70
2023-05-03T11:40:44.293Z,10.78
2023-05-03T11:43:12.440Z,10.86
2023-05-03T11:45:44.352Z,10.84
2023-05-03T11:48:13.853Z,10.87
2023-05-03T11:50:51.475Z,10.98
2023-05-03T11:53:20.081Z,11.11
2023-05-03T11:55:51.573Z,11.16
2023-05-03T11:58:26.608Z,11.19
2023-05-03T12:00:56.486Z,11.23
2023-05-03T12:03:33.606Z,11.27
2023-05-03T12:06:02.573Z,11.34
2023-05-03T12:08:35.522Z,11.38
2023-05-03T12:11:09.486Z,11.40
2023-05-03T12:13:40.236Z,11.46
2023-05-03T12:16:13.369Z,11.49
2023-05-03T12:19:05.777Z,11.55
2023-05-03T12:21:55.453Z,11.58
2023-05-03T12:24:39.006Z,11.49
2023-05-03T12:27:09.476Z,11.52
2023-05-03T12:29:37.567Z,11.52
2023-05-03T12:32:06.386Z,11.55
2023-05-03T12:34:36.242Z,11.57
2023-05-03T12:37:11.026Z,11.63
2023-05-03T12:39:46.162Z,11.61
2023-05-03T12:42:15.557Z,11.73
2023-05-03T12:44:47.938Z,11.79
2023-05-03T12:47:16.965Z,11.89
2023-05-03T12:49:57.599Z,11.95
2023-05-03T12:55:01.770Z,11.98
2023-05-03T12:57:33.058Z,12.00
2023-05-03T13:00:13.564Z,12.11
2023-05-03T13:03:19.809Z,12.08
2023-05-03T13:08:07.824Z,12.08
2023-05-03T13:10:41.636Z,11.97
2023-05-03T13:13:11.365Z,11.90
2023-05-03T13:15:39.576Z,11.86
2023-05-03T13:18:07.722Z,11.74
2023-05-03T13:20:36.285Z,11.81
2023-05-03T13:23:04.670Z,11.92
2023-05-03T13:25:32.123Z,11.92
2023-05-03T13:28:01.754Z,11.90
2023-05-03T13:30:29.475Z,11.91
2023-05-03T13:32:56.929Z,11.99
2023-05-03T13:35:24.632Z,12.15
2023-05-03T13:37:52.784Z,12.25
2023-05-03T13:40:21.801Z,12.29
2023-05-03T13:42:51.771Z,12.31
2023-05-03T13:45:20.092Z,12.29
2023-05-03T13:48:09.560Z,12.16
2023-05-03T13:50:35.086Z,12.18
2023-05-03T13:53:05.054Z,12.24
2023-05-03T13:55:32.911Z,12.31
2023-05-03T13:58:00.327Z,12.32
2023-05-03T14:00:28.935Z,12.29
2023-05-03T14:02:59.994Z,12.28
2023-05-03T14:05:27.543Z,12.31
2023-05-03T14:07:54.918Z,12.30
2023-05-03T14:10:22.868Z,12.32
2023-05-03T14:12:50.314Z,12.28
2023-05-03T14:15:18.711Z,12.29
2023-05-03T14:17:47.774Z,12.19
2023-05-03T14:20:17.514Z,12.00
2023-05-03T14:22:45.705Z,11.81
2023-05-03T14:25:14.482Z,11.81
2023-05-03T14:27:43.386Z,11.88
2023-05-03T14:30:11.551Z,11.79
2023-05-03T14:32:39.750Z,11.77
2023-05-03T14:35:07.761Z,11.77
2023-05-03T14:37:35.698Z,11.79
2023-05-03T14:40:03.905Z,11.86
2023-05-03T14:42:32.236Z,11.89
2023-05-03T14:45:00.104Z,11.88
2023-05-03T14:47:27.601Z,11.87
2023-05-03T14:49:56.299Z,11.83
2023-05-03T14:52:24.031Z,11.80
2023-05-03T14:54:51.795Z,11.80
2023-05-03T14:57:19.511Z,11.79
2023-05-03T14:59:47.282Z,11.77
2023-05-03T15:02:14.585Z,11.78
2023-05-03T15:04:43.306Z,11.70
2023-05-03T15:07:11.595Z,11.72
2023-05-03T15:09:39.845Z,11.71
2023-05-03T15:12:07.646Z,11.68
2023-05-03T15:14:35.323Z,11.59
2023-05-03T15:17:02.727Z,11.48
2023-05-03T15:19:30.102Z,11.40
2023-05-03T15:21:58.697Z,11.39
2023-05-03T15:24:27.201Z,11.43
2023-05-03T15:26:54.834Z,11.38
2023-05-03T15:29:23.954Z,11.33
2023-05-03T15:31:53.034Z,11.27
2023-05-03T15:34:20.421Z,11.23
2023-05-03T15:36:47.706Z,11.16
2023-05-03T15:39:15.377Z,11.14
2023-05-03T15:41:48.947Z,11.14
2023-05-03T15:44:17.766Z,11.13
2023-05-03T15:46:45.152Z,11.11
2023-05-03T15:49:12.780Z,11.09
2023-05-03T15:51:41.250Z,11.08
2023-05-03T15:54:08.738Z,11.01
2023-05-03T15:56:37.993Z,10.91
2023-05-03T15:59:06.035Z,10.84
2023-05-03T16:01:33.320Z,10.87
2023-05-03T16:04:01.086Z,10.89
2023-05-03T16:06:28.945Z,10.84
2023-05-03T16:08:56.543Z,10.81
2023-05-03T16:11:23.855Z,10.86
2023-05-03T16:13:51.256Z,10.86
2023-05-03T16:16:18.957Z,10.82
2023-05-03T16:18:46.465Z,10.76
2023-05-03T16:21:14.607Z,10.75
2023-05-03T16:23:42.846Z,10.70
2023-05-03T16:26:17.985Z,10.66
2023-05-03T16:28:45.446Z,10.63
2023-05-03T16:31:13.190Z,10.61
2023-05-03T16:33:42.631Z,10.62
2023-05-03T16:36:10.490Z,10.63
2023-05-03T16:38:38.595Z,10.61
2023-05-03T16:41:06.698Z,10.60
2023-05-03T16:43:34.034Z,10.59
2023-05-03T16:46:02.346Z,10.60
2023-05-03T16:48:32.585Z,10.62
2023-05-03T16:51:00.798Z,10.62
2023-05-03T16:53:28.581Z,10.57
2023-05-03T16:55:56.888Z,10.53
2023-05-03T16:58:24.268Z,10.49
2023-05-03T17:00:52.049Z,10.48
2023-05-03T17:03:20.097Z,10.44
2023-05-03T17:05:47.943Z,10.41
2023-05-03T17:08:15.470Z,10.37
2023-05-03T17:10:43.429Z,10.32
2023-05-03T17:13:11.269Z,10.28
2023-05-03T17:15:39.435Z,10.20
2023-05-03T17:18:06.946Z,10.12
2023-05-03T17:20:35.456Z,10.06
2023-05-03T17:23:02.880Z,10.01
2023-05-03T17:25:30.264Z,9.96
2023-05-03T17:27:57.810Z,9.91
2023-05-03T17:30:25.204Z,9.90
2023-05-03T17:32:52.638Z,9.90
2023-05-03T17:35:20.246Z,9.85
2023-05-03T17:37:47.993Z,9.78
2023-05-03T17:40:15.526Z,9.73
2023-05-03T17:42:42.952Z,9.70
2023-05-03T17:45:11.143Z,9.67
2023-05-03T17:47:38.672Z,9.64
2023-05-03T17:50:07.052Z,9.56
2023-05-03T17:52:34.343Z,9.48
2023-05-03T17:55:02.783Z,9.42
2023-05-03T17:57:30.229Z,9.37
2023-05-03T17:59:57.769Z,9.32
2023-05-03T18:02:25.345Z,9.26
2023-05-03T18:04:53.564Z,9.21
2023-05-03T18:07:20.984Z,9.20
2023-05-03T18:09:52.448Z,9.16
2023-05-03T18:12:20.090Z,9.06
2023-05-03T18:14:47.545Z,8.99
2023-05-03T18:17:14.807Z,8.95
2023-05-03T18:19:46.283Z,8.87
2023-05-03T18:22:13.852Z,8.79
2023-05-03T18:24:45.307Z,8.72
2023-05-03T18:27:13.014Z,8.68
2023-05-03T18:29:42.377Z,8.64
2023-05-03T18:32:09.785Z,8.56
2023-05-03T18:34:37.638Z,8.52
2023-05-03T18:37:05.449Z,8.47
2023-05-03T18:39:33.788Z,8.45
2023-05-03T18:42:02.908Z,8.38
2023-05-03T18:44:32.047Z,8.36
2023-05-03T18:46:59.496Z,8.32
2023-05-03T18:49:26.857Z,8.29
2023-05-03T18:51:55.786Z,8.26
2023-05-03T18:54:23.070Z,8.22
2023-05-03T18:56:51.055Z,8.16
2023-05-03T18:59:18.845Z,8.15
2023-05-03T19:01:46.755Z,8.15
2023-05-03T19:04:15.042Z,8.10
2023-05-03T19:06:42.453Z,8.07
2023-05-03T19:09:11.805Z,8.03
2023-05-03T19:11:44.364Z,8.00
2023-05-03T19:14:11.943Z,7.96
2023-05-03T19:16:39.765Z,7.92
2023-05-03T19:19:07.305Z,7.90
2023-05-03T19:21:37.769Z,7.85
2023-05-03T19:24:05.404Z,7.84
2023-05-03T19:26:33.004Z,7.82
2023-05-03T19:29:00.832Z,7.81
2023-05-03T19:31:28.221Z,7.80
2023-05-03T19:33:55.599Z,7.77
2023-05-03T19:36:22.860Z,7.75
2023-05-03T19:38:50.350Z,7.71
2023-05-03T19:41:17.621Z,7.67
2023-05-03T19:43:45.169Z,7.66
2023-05-03T19:46:12.547Z,7.63
2023-05-03T19:48:39.931Z,7.60
2023-05-03T19:51:13.214Z,7.56
2023-05-03T19:53:40.762Z,7.54
2023-05-03T19:56:10.379Z,7.52
2023-05-03T19:58:37.647Z,7.51
2023-05-03T20:01:05.231Z,7.49
2023-05-03T20:03:32.639Z,7.47
2023-05-03T20:06:00.072Z,7.45
2023-05-03T20:08:27.618Z,7.44
2023-05-03T20:10:55.888Z,7.42
2023-05-03T20:13:25.879Z,7.41
2023-05-03T20:15:53.926Z,7.38
2023-05-03T20:18:21.369Z,7.37
2023-05-03T20:20:48.665Z,7.34
2023-05-03T20:23:16.950Z,7.32
2023-05-03T20:25:44.386Z,7.29
2023-05-03T20:28:11.801Z,7.27
2023-05-03T20:30:39.852Z,7.26
2023-05-03T20:33:07.436Z,7.24
2023-05-03T20:35:37.920Z,7.22
2023-05-03T20:38:05.624Z,7.19
2023-05-03T20:40:34.466Z,7.19
2023-05-03T20:43:01.944Z,7.16
2023-05-03T20:45:30.180Z,7.15
2023-05-03T20:47:57.901Z,7.12
2023-05-03T20:50:25.315Z,7.10
2023-05-03T20:52:52.778Z,7.08
2023-05-03T20:55:20.123Z,7.07
2023-05-03T20:57:47.348Z,7.06
2023-05-03T21:00:15.830Z,7.04
2023-05-03T21:02:44.069Z,7.02
2023-05-03T21:05:11.591Z,7.00
2023-05-03T21:07:38.904Z,6.98
2023-05-03T21:10:09.160Z,6.97
2023-05-03T21:12:36.761Z,6.95
2023-05-03T21:15:04.701Z,6.92
2023-05-03T21:17:32.113Z,6.90
2023-05-03T21:19:59.463Z,6.90
2023-05-03T21:22:26.895Z,6.88
2023-05-03T21:24:54.205Z,6.85
2023-05-03T21:27:23.008Z,6.82
2023-05-03T21:29:50.405Z,6.80
2023-05-03T21:32:17.845Z,6.79
2023-05-03T21:34:45.110Z,6.78
2023-05-03T21:37:12.491Z,6.78
2023-05-03T21:39:40.559Z,6.79
2023-05-03T21:42:07.921Z,6.77
2023-05-03T21:44:35.165Z,6.75
2023-05-03T21:47:03.050Z,6.73
2023-05-03T21:49:30.608Z,6.71
2023-05-03T21:51:57.834Z,6.71
2023-05-03T21:54:25.088Z,6.71
2023-05-03T21:56:52.343Z,6.70
2023-05-03T21:59:19.652Z,6.71
2023-05-03T22:01:47.026Z,6.69
2023-05-03T22:04:14.444Z,6.67
2023-05-03T22:06:44.508Z,6.66
2023-05-03T22:09:11.861Z,6.64
2023-05-03T22:11:39.704Z,6.64
2023-05-03T22:14:08.374Z,6.61
2023-05-03T22:16:38.007Z,6.60
2023-05-03T22:19:05.937Z,6.61
2023-05-03T22:21:33.156Z,6.60
2023-05-03T22:24:00.360Z,6.59
2023-05-03T22:26:28.351Z,6.56
2023-05-03T22:28:55.980Z,6.56
2023-05-03T22:31:23.594Z,6.54
2023-05-03T22:33:50.956Z,6.54
2023-05-03T22:36:18.770Z,6.53
2023-05-03T22:38:46.216Z,6.54
2023-05-03T22:41:13.774Z,6.52
2023-05-03T22:43:43.742Z,6.50
2023-05-03T22:46:11.534Z,6.47
2023-05-03T22:48:38.815Z,6.47
2023-05-03T22:51:06.418Z,6.44
2023-05-03T22:53:33.828Z,6.43
2023-05-03T22:56:04.471Z,6.42
2023-05-03T22:58:32.046Z,6.42
2023-05-03T23:00:59.228Z,6.39
2023-05-03T23:03:28.145Z,6.38
2023-05-03T23:05:56.194Z,6.38
2023-05-03T23:08:23.748Z,6.35
2023-05-03T23:10:51.112Z,6.32
2023-05-03T23:13:18.466Z,6.32
2023-05-03T23:15:45.984Z,6.27
2023-05-03T23:18:13.520Z,6.25
2023-05-03T23:20:42.607Z,6.24
2023-05-03T23:23:10.475Z,6.22
2023-05-03T23:25:38.934Z,6.22
2023-05-03T23:28:09.585Z,6.21
2023-05-03T23:30:46.201Z,6.20
2023-05-03T23:33:14.191Z,6.19
2023-05-03T23:35:42.416Z,6.20
2023-05-03T23:38:09.857Z,6.20
2023-05-03T23:40:37.272Z,6.20
2023-05-03T23:43:04.739Z,6.19
2023-05-03T23:45:32.131Z,6.20
2023-05-03T23:47:59.576Z,6.20
2023-05-03T23:50:27.584Z,6.19
2023-05-03T23:52:55.040Z,6.22
2023-05-03T23:55:22.379Z,6.21
2023-05-03T23:57:49.787Z,6.21
